sensor_id;sensor_type;location;lat;lon;timestamp;P1;durP1;ratioP1;P2;durP2;ratioP2
55112;SDS011;41006;50.920;3.456;2023-05-10T00:00:18;34.33;;;25.92;;
55112;SDS011;41006;50.920;3.456;2023-05-10T00:00:52;36.38;;;25.92;;
55112;SDS011;41006;50.920;3.456;2023-05-10T00:01:25;38.28;;;27.13;;
55112;SDS011;41006;50.920;3.456;2023-05-10T00:01:59;33.42;;;25.25;;
55112;SDS011;41006;50.920;3.456;2023-05-10T00:02:30;33.38;;;25.27;;
55112;SDS011;41006;50.920;3.456;2023-05-10T00:03:03;31.83;;;25.52;;
55112;SDS011;41006;50.920;3.456;2023-05-10T00:03:36;32.65;;;23.95;;
55112;SDS011;41006;50.920;3.456;2023-05-10T00:04:07;34.85;;;25.55;;
55112;SDS011;41006;50.920;3.456;2023-05-10T00:04:37;32.75;;;24.67;;
55112;SDS011;41006;50.920;3.456;2023-05-10T00:05:10;32.03;;;24.80;;
55112;SDS011;41006;50.920;3.456;2023-05-10T00:05:40;33.42;;;24.40;;
55112;SDS011;41006;50.920;3.456;2023-05-10T00:06:15;29.60;;;24.05;;
55112;SDS011;41006;50.920;3.456;2023-05-10T00:06:49;28.98;;;24.83;;
55112;SDS011;41006;50.920;3.456;2023-05-10T00:07:25;34.85;;;25.95;;
55112;SDS011;41006;50.920;3.456;2023-05-10T00:07:57;32.58;;;25.65;;
55112;SDS011;41006;50.920;3.456;2023-05-10T00:08:30;33.35;;;24.50;;
55112;SDS011;41006;50.920;3.456;2023-05-10T00:09:01;35.03;;;25.42;;
55112;SDS011;41006;50.920;3.456;2023-05-10T00:09:33;34.22;;;25.50;;
55112;SDS011;41006;50.920;3.456;2023-05-10T00:10:06;32.83;;;25.58;;
55112;SDS011;41006;50.920;3.456;2023-05-10T00:10:39;31.40;;;25.15;;
55112;SDS011;41006;50.920;3.456;2023-05-10T00:11:10;37.65;;;26.88;;
55112;SDS011;41006;50.920;3.456;2023-05-10T00:11:43;31.92;;;23.90;;
55112;SDS011;41006;50.920;3.456;2023-05-10T00:12:16;33.90;;;24.88;;
55112;SDS011;41006;50.920;3.456;2023-05-10T00:12:46;34.90;;;25.75;;
55112;SDS011;41006;50.920;3.456;2023-05-10T00:13:16;32.08;;;25.02;;
55112;SDS011;41006;50.920;3.456;2023-05-10T00:13:49;35.67;;;26.92;;
55112;SDS011;41006;50.920;3.456;2023-05-10T00:14:20;33.67;;;25.38;;
55112;SDS011;41006;50.920;3.456;2023-05-10T00:14:54;31.88;;;24.95;;
55112;SDS011;41006;50.920;3.456;2023-05-10T00:15:27;32.22;;;24.90;;
55112;SDS011;41006;50.920;3.456;2023-05-10T00:15:58;35.55;;;25.92;;
55112;SDS011;41006;50.920;3.456;2023-05-10T00:16:30;33.58;;;25.85;;
55112;SDS011;41006;50.920;3.456;2023-05-10T00:17:03;30.13;;;25.50;;
55112;SDS011;41006;50.920;3.456;2023-05-10T00:17:33;33.33;;;24.20;;
55112;SDS011;41006;50.920;3.456;2023-05-10T00:18:06;37.42;;;25.80;;
55112;SDS011;41006;50.920;3.456;2023-05-10T00:18:41;36.55;;;26.52;;
55112;SDS011;41006;50.920;3.456;2023-05-10T00:19:14;33.00;;;25.85;;
55112;SDS011;41006;50.920;3.456;2023-05-10T00:19:47;29.60;;;24.60;;
55112;SDS011;41006;50.920;3.456;2023-05-10T00:20:18;31.55;;;25.73;;
55112;SDS011;41006;50.920;3.456;2023-05-10T00:20:48;32.85;;;25.17;;
55112;SDS011;41006;50.920;3.456;2023-05-10T00:21:19;33.30;;;24.73;;
55112;SDS011;41006;50.920;3.456;2023-05-10T00:21:49;33.60;;;24.77;;
55112;SDS011;41006;50.920;3.456;2023-05-10T00:22:22;33.55;;;25.88;;
55112;SDS011;41006;50.920;3.456;2023-05-10T00:22:55;33.20;;;25.17;;
55112;SDS011;41006;50.920;3.456;2023-05-10T00:23:25;37.05;;;25.50;;
55112;SDS011;41006;50.920;3.456;2023-05-10T00:23:56;30.73;;;23.33;;
55112;SDS011;41006;50.920;3.456;2023-05-10T00:24:26;29.30;;;23.70;;
55112;SDS011;41006;50.920;3.456;2023-05-10T00:24:57;29.50;;;23.50;;
55112;SDS011;41006;50.920;3.456;2023-05-10T00:25:30;31.92;;;26.30;;
55112;SDS011;41006;50.920;3.456;2023-05-10T00:26:00;33.67;;;25.35;;
55112;SDS011;41006;50.920;3.456;2023-05-10T00:26:35;33.33;;;23.25;;
55112;SDS011;41006;50.920;3.456;2023-05-10T00:27:08;29.80;;;24.17;;
55112;SDS011;41006;50.920;3.456;2023-05-10T00:27:39;33.20;;;24.38;;
55112;SDS011;41006;50.920;3.456;2023-05-10T00:28:09;37.10;;;25.98;;
55112;SDS011;41006;50.920;3.456;2023-05-10T00:28:42;34.45;;;24.02;;
55112;SDS011;41006;50.920;3.456;2023-05-10T00:29:19;30.38;;;23.73;;
55112;SDS011;41006;50.920;3.456;2023-05-10T00:29:54;34.08;;;26.73;;
55112;SDS011;41006;50.920;3.456;2023-05-10T00:30:27;33.33;;;24.80;;
55112;SDS011;41006;50.920;3.456;2023-05-10T00:31:00;35.75;;;25.10;;
55112;SDS011;41006;50.920;3.456;2023-05-10T00:31:30;30.83;;;24.30;;
55112;SDS011;41006;50.920;3.456;2023-05-10T00:32:00;34.90;;;25.58;;
55112;SDS011;41006;50.920;3.456;2023-05-10T00:32:33;35.75;;;25.60;;
55112;SDS011;41006;50.920;3.456;2023-05-10T00:33:04;36.05;;;26.10;;
55112;SDS011;41006;50.920;3.456;2023-05-10T00:33:36;32.90;;;24.52;;
55112;SDS011;41006;50.920;3.456;2023-05-10T00:34:06;36.35;;;26.33;;
55112;SDS011;41006;50.920;3.456;2023-05-10T00:34:41;35.95;;;23.88;;
55112;SDS011;41006;50.920;3.456;2023-05-10T00:35:12;35.83;;;25.52;;
55112;SDS011;41006;50.920;3.456;2023-05-10T00:35:44;37.72;;;24.77;;
55112;SDS011;41006;50.920;3.456;2023-05-10T00:36:17;33.75;;;24.80;;
55112;SDS011;41006;50.920;3.456;2023-05-10T00:36:47;33.80;;;25.27;;
55112;SDS011;41006;50.920;3.456;2023-05-10T00:37:20;30.80;;;24.65;;
55112;SDS011;41006;50.920;3.456;2023-05-10T00:37:54;33.08;;;24.48;;
55112;SDS011;41006;50.920;3.456;2023-05-10T00:38:28;37.17;;;25.25;;
55112;SDS011;41006;50.920;3.456;2023-05-10T00:39:04;40.35;;;26.40;;
55112;SDS011;41006;50.920;3.456;2023-05-10T00:39:36;33.78;;;25.38;;
55112;SDS011;41006;50.920;3.456;2023-05-10T00:40:12;36.05;;;27.35;;
55112;SDS011;41006;50.920;3.456;2023-05-10T00:40:45;34.33;;;26.45;;
55112;SDS011;41006;50.920;3.456;2023-05-10T00:41:18;37.13;;;26.15;;
55112;SDS011;41006;50.920;3.456;2023-05-10T00:41:51;36.45;;;26.60;;
55112;SDS011;41006;50.920;3.456;2023-05-10T00:42:22;37.85;;;26.33;;
55112;SDS011;41006;50.920;3.456;2023-05-10T00:42:55;34.60;;;26.45;;
55112;SDS011;41006;50.920;3.456;2023-05-10T00:43:28;38.45;;;26.75;;
55112;SDS011;41006;50.920;3.456;2023-05-10T00:43:58;39.55;;;28.02;;
55112;SDS011;41006;50.920;3.456;2023-05-10T00:44:31;42.78;;;27.88;;
55112;SDS011;41006;50.920;3.456;2023-05-10T00:45:03;42.25;;;26.35;;
55112;SDS011;41006;50.920;3.456;2023-05-10T00:45:34;39.25;;;27.63;;
55112;SDS011;41006;50.920;3.456;2023-05-10T00:46:06;34.97;;;26.42;;
55112;SDS011;41006;50.920;3.456;2023-05-10T00:46:40;40.42;;;26.38;;
55112;SDS011;41006;50.920;3.456;2023-05-10T00:47:15;35.25;;;26.70;;
55112;SDS011;41006;50.920;3.456;2023-05-10T00:47:46;45.67;;;27.98;;
55112;SDS011;41006;50.920;3.456;2023-05-10T00:48:19;40.08;;;28.02;;
55112;SDS011;41006;50.920;3.456;2023-05-10T00:48:52;36.88;;;27.08;;
55112;SDS011;41006;50.920;3.456;2023-05-10T00:49:25;37.63;;;26.35;;
55112;SDS011;41006;50.920;3.456;2023-05-10T00:49:55;41.13;;;27.83;;
55112;SDS011;41006;50.920;3.456;2023-05-10T00:50:29;42.53;;;28.08;;
55112;SDS011;41006;50.920;3.456;2023-05-10T00:51:02;40.78;;;27.77;;
55112;SDS011;41006;50.920;3.456;2023-05-10T00:51:35;41.25;;;28.92;;
55112;SDS011;41006;50.920;3.456;2023-05-10T00:52:06;45.65;;;27.92;;
55112;SDS011;41006;50.920;3.456;2023-05-10T00:52:38;44.65;;;29.48;;
55112;SDS011;41006;50.920;3.456;2023-05-10T00:53:09;44.47;;;29.73;;
55112;SDS011;41006;50.920;3.456;2023-05-10T00:53:40;45.75;;;28.35;;
55112;SDS011;41006;50.920;3.456;2023-05-10T00:54:13;45.13;;;29.10;;
55112;SDS011;41006;50.920;3.456;2023-05-10T00:54:44;43.05;;;29.73;;
55112;SDS011;41006;50.920;3.456;2023-05-10T00:55:16;42.50;;;29.23;;
55112;SDS011;41006;50.920;3.456;2023-05-10T00:55:46;41.65;;;29.00;;
55112;SDS011;41006;50.920;3.456;2023-05-10T00:56:19;41.05;;;28.75;;
55112;SDS011;41006;50.920;3.456;2023-05-10T00:56:52;34.90;;;27.85;;
55112;SDS011;41006;50.920;3.456;2023-05-10T00:57:25;45.90;;;28.50;;
55112;SDS011;41006;50.920;3.456;2023-05-10T00:57:59;41.72;;;30.52;;
55112;SDS011;41006;50.920;3.456;2023-05-10T00:58:29;38.97;;;28.77;;
55112;SDS011;41006;50.920;3.456;2023-05-10T00:59:03;47.13;;;31.13;;
55112;SDS011;41006;50.920;3.456;2023-05-10T00:59:33;48.28;;;31.52;;
55112;SDS011;41006;50.920;3.456;2023-05-10T01:00:04;46.47;;;31.02;;
55112;SDS011;41006;50.920;3.456;2023-05-10T01:00:35;48.22;;;30.73;;
55112;SDS011;41006;50.920;3.456;2023-05-10T01:01:11;41.85;;;30.83;;
55112;SDS011;41006;50.920;3.456;2023-05-10T01:01:44;50.88;;;32.03;;
55112;SDS011;41006;50.920;3.456;2023-05-10T01:02:16;48.63;;;31.75;;
55112;SDS011;41006;50.920;3.456;2023-05-10T01:02:51;45.05;;;30.90;;
55112;SDS011;41006;50.920;3.456;2023-05-10T01:03:23;44.25;;;29.77;;
55112;SDS011;41006;50.920;3.456;2023-05-10T01:03:56;46.90;;;29.92;;
55112;SDS011;41006;50.920;3.456;2023-05-10T01:04:28;43.25;;;30.67;;
55112;SDS011;41006;50.920;3.456;2023-05-10T01:04:58;45.90;;;28.90;;
55112;SDS011;41006;50.920;3.456;2023-05-10T01:05:29;45.65;;;30.77;;
55112;SDS011;41006;50.920;3.456;2023-05-10T01:06:03;46.72;;;29.13;;
55112;SDS011;41006;50.920;3.456;2023-05-10T01:06:36;46.50;;;30.75;;
55112;SDS011;41006;50.920;3.456;2023-05-10T01:07:11;43.63;;;30.90;;
55112;SDS011;41006;50.920;3.456;2023-05-10T01:07:47;40.38;;;29.58;;
55112;SDS011;41006;50.920;3.456;2023-05-10T01:08:18;42.13;;;29.52;;
55112;SDS011;41006;50.920;3.456;2023-05-10T01:08:48;42.10;;;29.17;;
55112;SDS011;41006;50.920;3.456;2023-05-10T01:09:22;39.72;;;27.65;;
55112;SDS011;41006;50.920;3.456;2023-05-10T01:09:53;43.63;;;30.25;;
55112;SDS011;41006;50.920;3.456;2023-05-10T01:10:27;44.20;;;29.63;;
55112;SDS011;41006;50.920;3.456;2023-05-10T01:11:01;43.67;;;29.33;;
55112;SDS011;41006;50.920;3.456;2023-05-10T01:11:36;45.28;;;30.42;;
55112;SDS011;41006;50.920;3.456;2023-05-10T01:12:10;44.38;;;29.67;;
55112;SDS011;41006;50.920;3.456;2023-05-10T01:12:42;43.97;;;32.42;;
55112;SDS011;41006;50.920;3.456;2023-05-10T01:13:23;43.05;;;30.10;;
55112;SDS011;41006;50.920;3.456;2023-05-10T01:14:03;44.22;;;30.17;;
55112;SDS011;41006;50.920;3.456;2023-05-10T01:14:37;49.72;;;31.55;;
55112;SDS011;41006;50.920;3.456;2023-05-10T01:15:15;46.03;;;30.83;;
55112;SDS011;41006;50.920;3.456;2023-05-10T01:15:47;48.75;;;32.20;;
55112;SDS011;41006;50.920;3.456;2023-05-10T01:16:19;45.15;;;30.95;;
55112;SDS011;41006;50.920;3.456;2023-05-10T01:16:55;48.95;;;31.80;;
55112;SDS011;41006;50.920;3.456;2023-05-10T01:17:28;48.28;;;31.50;;
55112;SDS011;41006;50.920;3.456;2023-05-10T01:17:59;49.40;;;32.47;;
55112;SDS011;41006;50.920;3.456;2023-05-10T01:18:30;47.90;;;31.75;;
55112;SDS011;41006;50.920;3.456;2023-05-10T01:19:19;47.00;;;30.60;;
55112;SDS011;41006;50.920;3.456;2023-05-10T01:19:55;53.42;;;33.40;;
55112;SDS011;41006;50.920;3.456;2023-05-10T01:20:26;47.42;;;32.60;;
55112;SDS011;41006;50.920;3.456;2023-05-10T01:24:17;44.15;;;30.65;;
55112;SDS011;41006;50.920;3.456;2023-05-10T01:31:06;48.10;;;29.88;;
55112;SDS011;41006;50.920;3.456;2023-05-10T01:32:46;46.75;;;29.42;;
55112;SDS011;41006;50.920;3.456;2023-05-10T01:34:07;46.80;;;30.73;;
55112;SDS011;41006;50.920;3.456;2023-05-10T01:35:25;44.22;;;30.48;;
55112;SDS011;41006;50.920;3.456;2023-05-10T01:36:46;49.50;;;29.80;;
55112;SDS011;41006;50.920;3.456;2023-05-10T01:37:20;40.17;;;29.33;;
55112;SDS011;41006;50.920;3.456;2023-05-10T01:40:07;40.75;;;28.83;;
55112;SDS011;41006;50.920;3.456;2023-05-10T01:42:39;39.22;;;28.13;;
55112;SDS011;41006;50.920;3.456;2023-05-10T01:43:17;42.58;;;29.38;;
55112;SDS011;41006;50.920;3.456;2023-05-10T01:44:16;47.20;;;27.92;;
55112;SDS011;41006;50.920;3.456;2023-05-10T01:45:05;41.65;;;28.27;;
55112;SDS011;41006;50.920;3.456;2023-05-10T01:45:49;40.70;;;28.45;;
55112;SDS011;41006;50.920;3.456;2023-05-10T01:46:33;42.45;;;27.92;;
55112;SDS011;41006;50.920;3.456;2023-05-10T01:47:08;44.85;;;29.83;;
55112;SDS011;41006;50.920;3.456;2023-05-10T01:47:44;38.85;;;28.60;;
55112;SDS011;41006;50.920;3.456;2023-05-10T01:48:24;42.63;;;28.50;;
55112;SDS011;41006;50.920;3.456;2023-05-10T01:49:00;39.47;;;29.27;;
55112;SDS011;41006;50.920;3.456;2023-05-10T01:49:49;42.80;;;27.13;;
55112;SDS011;41006;50.920;3.456;2023-05-10T01:50:22;46.65;;;27.70;;
55112;SDS011;41006;50.920;3.456;2023-05-10T01:50:58;40.22;;;27.38;;
55112;SDS011;41006;50.920;3.456;2023-05-10T01:51:31;44.25;;;29.00;;
55112;SDS011;41006;50.920;3.456;2023-05-10T01:52:14;40.78;;;28.15;;
55112;SDS011;41006;50.920;3.456;2023-05-10T01:52:58;44.25;;;26.40;;
55112;SDS011;41006;50.920;3.456;2023-05-10T01:53:30;36.53;;;25.88;;
55112;SDS011;41006;50.920;3.456;2023-05-10T01:54:03;42.28;;;27.15;;
55112;SDS011;41006;50.920;3.456;2023-05-10T01:54:38;35.45;;;24.98;;
55112;SDS011;41006;50.920;3.456;2023-05-10T01:55:16;39.97;;;26.80;;
55112;SDS011;41006;50.920;3.456;2023-05-10T01:55:50;37.33;;;25.90;;
55112;SDS011;41006;50.920;3.456;2023-05-10T01:56:28;35.97;;;25.92;;
55112;SDS011;41006;50.920;3.456;2023-05-10T01:57:05;32.95;;;25.02;;
55112;SDS011;41006;50.920;3.456;2023-05-10T01:57:38;38.08;;;26.05;;
55112;SDS011;41006;50.920;3.456;2023-05-10T01:58:34;41.17;;;26.50;;
55112;SDS011;41006;50.920;3.456;2023-05-10T01:59:12;38.20;;;26.10;;
55112;SDS011;41006;50.920;3.456;2023-05-10T01:59:48;39.88;;;27.80;;
55112;SDS011;41006;50.920;3.456;2023-05-10T02:00:20;42.45;;;28.23;;
55112;SDS011;41006;50.920;3.456;2023-05-10T02:00:52;40.67;;;26.20;;
55112;SDS011;41006;50.920;3.456;2023-05-10T02:01:28;38.67;;;26.08;;
55112;SDS011;41006;50.920;3.456;2023-05-10T02:01:59;37.22;;;27.23;;
55112;SDS011;41006;50.920;3.456;2023-05-10T02:02:35;34.97;;;25.15;;
55112;SDS011;41006;50.920;3.456;2023-05-10T02:03:08;43.92;;;25.60;;
55112;SDS011;41006;50.920;3.456;2023-05-10T02:03:40;43.28;;;25.90;;
55112;SDS011;41006;50.920;3.456;2023-05-10T02:04:14;42.05;;;26.00;;
55112;SDS011;41006;50.920;3.456;2023-05-10T02:04:49;37.40;;;25.17;;
55112;SDS011;41006;50.920;3.456;2023-05-10T02:05:23;40.47;;;26.85;;
55112;SDS011;41006;50.920;3.456;2023-05-10T02:05:55;38.80;;;25.15;;
55112;SDS011;41006;50.920;3.456;2023-05-10T02:06:26;36.75;;;25.42;;
55112;SDS011;41006;50.920;3.456;2023-05-10T02:07:00;35.78;;;24.08;;
55112;SDS011;41006;50.920;3.456;2023-05-10T02:07:36;44.05;;;27.88;;
55112;SDS011;41006;50.920;3.456;2023-05-10T02:08:09;37.83;;;26.98;;
55112;SDS011;41006;50.920;3.456;2023-05-10T02:08:41;40.25;;;25.05;;
55112;SDS011;41006;50.920;3.456;2023-05-10T02:09:13;40.10;;;25.48;;
55112;SDS011;41006;50.920;3.456;2023-05-10T02:09:47;45.78;;;27.23;;
55112;SDS011;41006;50.920;3.456;2023-05-10T02:10:17;40.20;;;25.60;;
55112;SDS011;41006;50.920;3.456;2023-05-10T02:10:52;37.05;;;24.92;;
55112;SDS011;41006;50.920;3.456;2023-05-10T02:11:30;38.25;;;26.77;;
55112;SDS011;41006;50.920;3.456;2023-05-10T02:12:04;40.33;;;25.20;;
55112;SDS011;41006;50.920;3.456;2023-05-10T02:12:41;40.97;;;26.60;;
55112;SDS011;41006;50.920;3.456;2023-05-10T02:13:13;41.03;;;27.05;;
55112;SDS011;41006;50.920;3.456;2023-05-10T02:13:49;37.38;;;26.23;;
55112;SDS011;41006;50.920;3.456;2023-05-10T02:14:26;44.45;;;26.95;;
55112;SDS011;41006;50.920;3.456;2023-05-10T02:14:57;38.65;;;25.08;;
55112;SDS011;41006;50.920;3.456;2023-05-10T02:15:32;41.13;;;27.63;;
55112;SDS011;41006;50.920;3.456;2023-05-10T02:16:05;42.63;;;26.38;;
55112;SDS011;41006;50.920;3.456;2023-05-10T02:16:39;40.80;;;26.20;;
55112;SDS011;41006;50.920;3.456;2023-05-10T02:17:11;42.47;;;27.33;;
55112;SDS011;41006;50.920;3.456;2023-05-10T02:17:44;40.45;;;27.25;;
55112;SDS011;41006;50.920;3.456;2023-05-10T02:18:17;40.78;;;26.48;;
55112;SDS011;41006;50.920;3.456;2023-05-10T02:18:50;37.35;;;26.88;;
55112;SDS011;41006;50.920;3.456;2023-05-10T02:19:23;41.45;;;27.08;;
55112;SDS011;41006;50.920;3.456;2023-05-10T02:19:57;47.55;;;28.95;;
55112;SDS011;41006;50.920;3.456;2023-05-10T02:20:31;37.67;;;27.45;;
55112;SDS011;41006;50.920;3.456;2023-05-10T02:21:03;42.53;;;27.50;;
55112;SDS011;41006;50.920;3.456;2023-05-10T02:21:38;44.28;;;27.58;;
55112;SDS011;41006;50.920;3.456;2023-05-10T02:22:10;42.50;;;28.52;;
55112;SDS011;41006;50.920;3.456;2023-05-10T02:22:45;38.97;;;27.05;;
55112;SDS011;41006;50.920;3.456;2023-05-10T02:23:20;43.15;;;26.48;;
55112;SDS011;41006;50.920;3.456;2023-05-10T02:23:52;42.08;;;26.92;;
55112;SDS011;41006;50.920;3.456;2023-05-10T02:24:28;38.58;;;27.35;;
55112;SDS011;41006;50.920;3.456;2023-05-10T02:25:01;41.88;;;28.98;;
55112;SDS011;41006;50.920;3.456;2023-05-10T02:25:36;42.10;;;27.27;;
55112;SDS011;41006;50.920;3.456;2023-05-10T02:26:10;45.13;;;28.10;;
55112;SDS011;41006;50.920;3.456;2023-05-10T02:26:43;40.60;;;27.70;;
55112;SDS011;41006;50.920;3.456;2023-05-10T02:27:17;43.92;;;27.65;;
55112;SDS011;41006;50.920;3.456;2023-05-10T02:27:56;46.88;;;29.40;;
55112;SDS011;41006;50.920;3.456;2023-05-10T02:28:30;44.53;;;28.98;;
55112;SDS011;41006;50.920;3.456;2023-05-10T02:29:02;46.42;;;28.83;;
55112;SDS011;41006;50.920;3.456;2023-05-10T02:29:35;39.88;;;27.25;;
55112;SDS011;41006;50.920;3.456;2023-05-10T02:30:09;42.17;;;28.35;;
55112;SDS011;41006;50.920;3.456;2023-05-10T02:30:43;41.05;;;28.83;;
55112;SDS011;41006;50.920;3.456;2023-05-10T02:31:16;44.92;;;27.23;;
55112;SDS011;41006;50.920;3.456;2023-05-10T02:31:48;45.65;;;27.98;;
55112;SDS011;41006;50.920;3.456;2023-05-10T02:32:21;40.67;;;26.13;;
55112;SDS011;41006;50.920;3.456;2023-05-10T02:32:54;46.63;;;27.20;;
55112;SDS011;41006;50.920;3.456;2023-05-10T02:33:28;42.75;;;26.73;;
55112;SDS011;41006;50.920;3.456;2023-05-10T02:34:02;37.88;;;26.10;;
55112;SDS011;41006;50.920;3.456;2023-05-10T02:34:34;39.80;;;25.80;;
55112;SDS011;41006;50.920;3.456;2023-05-10T02:35:07;38.80;;;25.88;;
55112;SDS011;41006;50.920;3.456;2023-05-10T02:35:41;43.20;;;26.60;;
55112;SDS011;41006;50.920;3.456;2023-05-10T02:36:12;46.63;;;27.48;;
55112;SDS011;41006;50.920;3.456;2023-05-10T02:36:45;41.97;;;27.95;;
55112;SDS011;41006;50.920;3.456;2023-05-10T02:37:19;43.75;;;28.40;;
55112;SDS011;41006;50.920;3.456;2023-05-10T02:37:51;42.63;;;25.80;;
55112;SDS011;41006;50.920;3.456;2023-05-10T02:38:26;39.33;;;27.15;;
55112;SDS011;41006;50.920;3.456;2023-05-10T02:39:00;41.95;;;25.63;;
55112;SDS011;41006;50.920;3.456;2023-05-10T02:39:32;36.80;;;25.50;;
55112;SDS011;41006;50.920;3.456;2023-05-10T02:40:08;38.55;;;25.30;;
55112;SDS011;41006;50.920;3.456;2023-05-10T02:40:42;40.30;;;25.23;;
55112;SDS011;41006;50.920;3.456;2023-05-10T02:41:14;38.63;;;26.95;;
55112;SDS011;41006;50.920;3.456;2023-05-10T02:41:50;41.50;;;28.27;;
55112;SDS011;41006;50.920;3.456;2023-05-10T02:42:26;41.65;;;26.88;;
55112;SDS011;41006;50.920;3.456;2023-05-10T02:43:00;35.55;;;25.58;;
55112;SDS011;41006;50.920;3.456;2023-05-10T02:43:36;36.85;;;26.58;;
55112;SDS011;41006;50.920;3.456;2023-05-10T02:44:09;39.30;;;25.10;;
55112;SDS011;41006;50.920;3.456;2023-05-10T02:44:47;41.67;;;25.80;;
55112;SDS011;41006;50.920;3.456;2023-05-10T02:45:21;47.88;;;27.08;;
55112;SDS011;41006;50.920;3.456;2023-05-10T02:45:54;36.25;;;25.70;;
55112;SDS011;41006;50.920;3.456;2023-05-10T02:46:25;41.50;;;27.20;;
55112;SDS011;41006;50.920;3.456;2023-05-10T02:47:00;36.83;;;25.88;;
55112;SDS011;41006;50.920;3.456;2023-05-10T02:47:33;40.80;;;26.30;;
55112;SDS011;41006;50.920;3.456;2023-05-10T02:48:04;34.10;;;26.58;;
55112;SDS011;41006;50.920;3.456;2023-05-10T02:48:37;42.50;;;27.45;;
55112;SDS011;41006;50.920;3.456;2023-05-10T02:49:08;38.33;;;26.42;;
55112;SDS011;41006;50.920;3.456;2023-05-10T02:49:43;32.15;;;24.45;;
55112;SDS011;41006;50.920;3.456;2023-05-10T02:50:16;38.22;;;28.08;;
55112;SDS011;41006;50.920;3.456;2023-05-10T02:50:46;44.55;;;27.67;;
55112;SDS011;41006;50.920;3.456;2023-05-10T02:51:21;39.78;;;25.70;;
55112;SDS011;41006;50.920;3.456;2023-05-10T02:52:01;38.03;;;25.70;;
55112;SDS011;41006;50.920;3.456;2023-05-10T02:52:42;36.58;;;26.70;;
55112;SDS011;41006;50.920;3.456;2023-05-10T02:53:18;36.20;;;26.90;;
55112;SDS011;41006;50.920;3.456;2023-05-10T02:54:01;34.90;;;26.98;;
55112;SDS011;41006;50.920;3.456;2023-05-10T02:55:15;41.88;;;30.23;;
55112;SDS011;41006;50.920;3.456;2023-05-10T02:55:52;41.08;;;31.17;;
55112;SDS011;41006;50.920;3.456;2023-05-10T02:56:29;45.22;;;30.35;;
55112;SDS011;41006;50.920;3.456;2023-05-10T02:57:03;39.35;;;30.98;;
55112;SDS011;41006;50.920;3.456;2023-05-10T02:57:38;45.67;;;28.85;;
55112;SDS011;41006;50.920;3.456;2023-05-10T02:58:14;39.75;;;28.33;;
55112;SDS011;41006;50.920;3.456;2023-05-10T02:58:44;37.88;;;27.65;;
55112;SDS011;41006;50.920;3.456;2023-05-10T02:59:17;37.55;;;26.75;;
55112;SDS011;41006;50.920;3.456;2023-05-10T02:59:49;39.90;;;26.55;;
55112;SDS011;41006;50.920;3.456;2023-05-10T03:00:20;43.28;;;30.02;;
55112;SDS011;41006;50.920;3.456;2023-05-10T03:00:50;40.50;;;27.65;;
55112;SDS011;41006;50.920;3.456;2023-05-10T03:01:26;46.83;;;28.58;;
55112;SDS011;41006;50.920;3.456;2023-05-10T03:01:59;33.70;;;26.25;;
55112;SDS011;41006;50.920;3.456;2023-05-10T03:02:30;40.53;;;26.92;;
55112;SDS011;41006;50.920;3.456;2023-05-10T03:03:00;46.28;;;27.73;;
55112;SDS011;41006;50.920;3.456;2023-05-10T03:03:31;38.70;;;27.80;;
55112;SDS011;41006;50.920;3.456;2023-05-10T03:04:04;45.20;;;27.85;;
55112;SDS011;41006;50.920;3.456;2023-05-10T03:04:36;42.13;;;27.25;;
55112;SDS011;41006;50.920;3.456;2023-05-10T03:05:08;40.75;;;28.33;;
55112;SDS011;41006;50.920;3.456;2023-05-10T03:05:41;40.17;;;26.60;;
55112;SDS011;41006;50.920;3.456;2023-05-10T03:06:12;36.67;;;27.17;;
55112;SDS011;41006;50.920;3.456;2023-05-10T03:06:42;38.65;;;27.70;;
55112;SDS011;41006;50.920;3.456;2023-05-10T03:07:13;40.58;;;29.15;;
55112;SDS011;41006;50.920;3.456;2023-05-10T03:07:46;39.00;;;27.75;;
55112;SDS011;41006;50.920;3.456;2023-05-10T03:08:21;36.15;;;27.40;;
55112;SDS011;41006;50.920;3.456;2023-05-10T03:08:59;42.33;;;28.15;;
55112;SDS011;41006;50.920;3.456;2023-05-10T03:09:29;42.08;;;27.17;;
55112;SDS011;41006;50.920;3.456;2023-05-10T03:10:00;41.65;;;28.30;;
55112;SDS011;41006;50.920;3.456;2023-05-10T03:10:32;40.35;;;27.90;;
55112;SDS011;41006;50.920;3.456;2023-05-10T03:11:21;40.65;;;26.92;;
55112;SDS011;41006;50.920;3.456;2023-05-10T03:12:15;34.53;;;26.58;;
55112;SDS011;41006;50.920;3.456;2023-05-10T03:15:58;39.78;;;29.08;;
55112;SDS011;41006;50.920;3.456;2023-05-10T03:16:46;46.72;;;31.13;;
55112;SDS011;41006;50.920;3.456;2023-05-10T03:17:23;49.45;;;31.40;;
55112;SDS011;41006;50.920;3.456;2023-05-10T03:18:37;50.38;;;33.05;;
55112;SDS011;41006;50.920;3.456;2023-05-10T03:19:22;52.30;;;35.67;;
55112;SDS011;41006;50.920;3.456;2023-05-10T03:19:56;57.38;;;36.03;;
55112;SDS011;41006;50.920;3.456;2023-05-10T03:20:41;57.50;;;36.30;;
55112;SDS011;41006;50.920;3.456;2023-05-10T03:21:17;57.50;;;37.15;;
55112;SDS011;41006;50.920;3.456;2023-05-10T03:21:49;57.00;;;36.33;;
55112;SDS011;41006;50.920;3.456;2023-05-10T03:22:37;55.38;;;34.83;;
55112;SDS011;41006;50.920;3.456;2023-05-10T03:23:11;52.42;;;34.78;;
55112;SDS011;41006;50.920;3.456;2023-05-10T03:23:56;71.35;;;36.15;;
55112;SDS011;41006;50.920;3.456;2023-05-10T03:24:31;57.50;;;34.15;;
55112;SDS011;41006;50.920;3.456;2023-05-10T03:25:06;61.67;;;36.67;;
55112;SDS011;41006;50.920;3.456;2023-05-10T03:25:44;58.97;;;35.60;;
55112;SDS011;41006;50.920;3.456;2023-05-10T03:26:23;56.67;;;35.97;;
55112;SDS011;41006;50.920;3.456;2023-05-10T03:26:56;63.40;;;36.67;;
55112;SDS011;41006;50.920;3.456;2023-05-10T03:27:37;70.35;;;43.03;;
55112;SDS011;41006;50.920;3.456;2023-05-10T03:28:12;69.65;;;37.00;;
55112;SDS011;41006;50.920;3.456;2023-05-10T03:28:49;70.32;;;39.55;;
55112;SDS011;41006;50.920;3.456;2023-05-10T03:29:22;69.25;;;39.78;;
55112;SDS011;41006;50.920;3.456;2023-05-10T03:29:58;73.20;;;39.22;;
55112;SDS011;41006;50.920;3.456;2023-05-10T03:30:32;69.07;;;39.25;;
55112;SDS011;41006;50.920;3.456;2023-05-10T03:31:06;68.47;;;38.90;;
55112;SDS011;41006;50.920;3.456;2023-05-10T03:31:39;73.03;;;43.10;;
55112;SDS011;41006;50.920;3.456;2023-05-10T03:32:12;67.97;;;38.13;;
55112;SDS011;41006;50.920;3.456;2023-05-10T03:32:43;76.05;;;41.60;;
55112;SDS011;41006;50.920;3.456;2023-05-10T03:33:13;76.68;;;40.15;;
55112;SDS011;41006;50.920;3.456;2023-05-10T03:33:51;74.45;;;41.28;;
55112;SDS011;41006;50.920;3.456;2023-05-10T03:34:24;69.57;;;40.83;;
55112;SDS011;41006;50.920;3.456;2023-05-10T03:34:58;76.57;;;40.55;;
55112;SDS011;41006;50.920;3.456;2023-05-10T03:35:31;72.43;;;40.00;;
55112;SDS011;41006;50.920;3.456;2023-05-10T03:36:06;81.88;;;45.97;;
55112;SDS011;41006;50.920;3.456;2023-05-10T03:36:37;80.80;;;41.83;;
55112;SDS011;41006;50.920;3.456;2023-05-10T03:37:07;72.18;;;39.47;;
55112;SDS011;41006;50.920;3.456;2023-05-10T03:37:40;74.85;;;40.72;;
55112;SDS011;41006;50.920;3.456;2023-05-10T03:38:11;77.50;;;40.58;;
55112;SDS011;41006;50.920;3.456;2023-05-10T03:38:44;74.72;;;43.30;;
55112;SDS011;41006;50.920;3.456;2023-05-10T03:39:15;70.75;;;38.50;;
55112;SDS011;41006;50.920;3.456;2023-05-10T03:39:45;77.22;;;41.40;;
55112;SDS011;41006;50.920;3.456;2023-05-10T03:40:16;73.90;;;40.45;;